Flight Track Log - Related Links

Times and Time Zones

All times are in EDT time to prevent confusion due to time zone crossing. See the AAL1632 flight status page for this flight to view local times or setup timezone preferences in your user account.

Time Position Orientation Groundspeed Altitude Reporting Facility
EDT Latitude Longitude Course Direction KTS MPH feet Rate Location/Type
Sat 12:31:29 AM 32.8675 -97.0295 169° South 153 176 2,000  Level FlightAware ADS-B
Sat 12:31:32 AM 32.8718 -97.0302 177° South 152 175 2,200 1,333 Climbing FlightAware ADS-B
Sat 12:31:38 AM 32.8633 -97.0282 164° South 159 183 2,200 923 Level FlightAware ADS-B
Sat 12:31:58 AM 32.8459 -97.0217 161° South 181 208 2,600 1,135 Climbing FlightAware ADS-B
Sat 12:32:15 AM 32.8446 -97.0212 161° South 198 228 2,900 1,412 Climbing FlightAware ADS-B
Sat 12:32:32 AM 32.8112 -97.0070 149° Southeast 234 269 3,400 1,235 Climbing FlightAware ADS-B
Sat 12:32:49 AM 32.8017 -96.9963 129° Southeast 254 292 3,600 1,071 Climbing FlightAware ADS-B
Sat 12:33:00 AM 32.7960 -96.9827 107° East 273 314 3,900 2,100 Climbing FlightAware ADS-B
Sat 12:33:09 AM 32.7947 -96.9663 89° East 281 323 4,300 2,640 Climbing FlightAware ADS-B
Sat 12:33:25 AM 32.7971 -96.9439 81° East 281 323 5,000 2,780 Climbing FlightAware ADS-B
Sat 12:33:50 AM 32.8018 -96.9040 82° East 284 327 6,200 2,864 Climbing FlightAware ADS-B
Sat 12:34:09 AM 32.8052 -96.8743 82° East 287 330 7,100 3,077 Climbing FlightAware ADS-B
Sat 12:34:29 AM 32.8088 -96.8430 82° East 281 323 8,200 3,000 Climbing FlightAware ADS-B
Sat 12:34:49 AM 32.8117 -96.8166 82° East 282 325 9,100 2,400 Climbing FlightAware ADS-B
Sat 12:35:29 AM 32.8194 -96.7477 82° East 299 344 10,600 1,725 Climbing FlightAware ADS-B
Sat 12:36:09 AM 32.8271 -96.6787 82° East 341 392 11,400 1,091 Climbing FlightAware ADS-B
Sat 12:36:35 AM 32.8332 -96.6316 78° East 364 419 11,800 1,000 Climbing FlightAware ADS-B
Sat 12:37:09 AM 32.8494 -96.5603 74° East 393 452 12,400 1,569 Climbing FlightAware ADS-B
Sat 12:37:40 AM 32.8638 -96.4930 79° East 400 460 13,500 1,970 Climbing FlightAware ADS-B
Sat 12:38:16 AM 32.8694 -96.4044 87° East 411 473 14,600 1,800 Climbing FlightAware ADS-B (KAHC)
Sat 12:38:50 AM 32.8727 -96.3430 86° East 413 475 15,600 1,808 Climbing FlightAware ADS-B
Sat 12:39:29 AM 32.8765 -96.2513 86° East 417 480 16,800 1,826 Climbing FlightAware ADS-B
Sat 12:39:59 AM 32.8800 -96.1831 86° East 420 483 17,700 1,700 Climbing FlightAware ADS-B
Sat 12:40:29 AM 32.8831 -96.1134 87° East 426 490 18,500 1,475 Climbing FlightAware ADS-B
Sat 12:41:00 AM 32.8856 -96.0437 87° East 432 497 19,200 1,258 Climbing FlightAware ADS-B
Sat 12:41:31 AM 32.8888 -95.9723 86° East 441 507 19,800 1,421 Climbing FlightAware ADS-B
Sat 12:42:16 AM 32.8956 -95.8434 86° East 450 518 21,000 1,370 Climbing FlightAware ADS-B (KHOU)
Sat 12:43:03 AM 32.9018 -95.7266 85° East 459 528 21,900 1,109 Climbing FlightAware ADS-B (KHOU)
Sat 12:43:48 AM 32.9102 -95.6085 85° East 468 539 22,700 1,000 Climbing FlightAware ADS-B (KHOU)
Sat 12:44:33 AM 32.9173 -95.5102 84° East 474 545 23,400 889 Climbing FlightAware ADS-B (KHOU)
Sat 12:45:09 AM 32.9251 -95.4038 85° East 478 550 23,900 857 Climbing FlightAware ADS-B (KHOU)
Sat 12:46:04 AM 32.9351 -95.2572 85° East 481 554 24,700 796 Climbing FlightAware ADS-B (KHOU)
Sat 12:46:47 AM 32.9406 -95.1506 86° East 487 560 25,200 791 Climbing FlightAware ADS-B (KHOU)
Sat 12:47:35 AM 32.9471 -95.0150 86° East 491 565 25,900 957 Climbing FlightAware ADS-B (KHOU)
Sat 12:48:21 AM 32.9532 -94.8908 86° East 492 566 26,700 923 Climbing FlightAware ADS-B (KHOU)
Sat 12:49:06 AM 32.9588 -94.7831 86° East 497 572 27,300 1,200 Climbing FlightAware ADS-B (KHOU)
Sat 12:49:51 AM 32.9661 -94.6422 86° East 492 566 28,500 1,500 Climbing FlightAware ADS-B (KHOU)
Sat 12:50:06 AM 32.9678 -94.6110 86° East 493 567 28,800 1,696 Climbing FlightAware ADS-B
Sat 12:50:37 AM 32.9718 -94.5393 86° East 483 556 29,800 1,478 Climbing FlightAware ADS-B
Sat 12:51:15 AM 32.9796 -94.4194 86° East 486 559 30,500 1,067 Climbing FlightAware ADS-B
Sat 12:51:22 AM 32.9808 -94.4012 85° East 487 560 30,600 1,355 Climbing FlightAware ADS-B (KHOU)
Sat 12:51:46 AM 32.9855 -94.3343 85° East 487 560 31,200 1,364 Climbing FlightAware ADS-B
Sat 12:52:06 AM 32.9873 -94.3088 85° East 476 548 31,600 2,400 Climbing FlightAware ADS-B (KHOU)
Sat 12:52:26 AM 32.9925 -94.2373 85° East 470 541 32,800 1,826 Climbing FlightAware ADS-B
Sat 12:52:52 AM 32.9984 -94.1647 83° East 476 548 33,000 387 Climbing FlightAware ADS-B (KHOU)
Sat 12:52:57 AM 32.9998 -94.1528 82° East 476 548 33,000  Level FlightAware ADS-B
Sat 12:53:27 AM 33.0138 -94.0736 75° East 475 547 33,000  Level FlightAware ADS-B
Sat 12:53:57 AM 33.0324 -94.0026 73° East 472 543 33,000  Level FlightAware ADS-B
Sat 12:54:23 AM 33.0479 -93.9432 72° East 470 541 33,000  Level FlightAware ADS-B (KHOU)
Sat 12:54:27 AM 33.0519 -93.9272 73° East 470 541 33,000  Level FlightAware ADS-B
Sat 12:54:57 AM 33.0710 -93.8534 73° East 467 537 33,000  Level FlightAware ADS-B
Sat 12:55:08 AM 33.0626 -93.8859 72° East 468 539 33,000  Level FlightAware ADS-B (KHOU)
Sat 12:55:27 AM 33.0905 -93.7780 73° East 466 536 33,000  Level FlightAware ADS-B
Sat 12:55:54 AM 33.1063 -93.7181 72° East 464 534 33,000  Level FlightAware ADS-B (KHOU)
Sat 12:55:57 AM 33.1091 -93.7077 73° East 464 534 33,000 -182 Level FlightAware ADS-B
Sat 12:56:27 AM 33.1276 -93.6350 74° East 465 535 32,900  Descending FlightAware ADS-B
Sat 12:56:57 AM 33.1446 -93.5574 75° East 465 535 33,000 100 Climbing FlightAware ADS-B
Sat 12:57:27 AM 33.1606 -93.4849 75° East 467 537 33,000  Level FlightAware ADS-B
Sat 12:57:41 AM 33.1665 -93.4573 75° East 468 539 33,000  Level FlightAware ADS-B (KHOU)
Sat 12:58:47 AM 33.2038 -93.2828 76° East 471 542 33,000  Level FlightAware ADS-B
Sat 12:59:26 AM 33.2159 -93.2273 76° East 471 542 33,000  Level FlightAware ADS-B
Sat 01:00:15 AM 33.2514 -93.0603 76° East 473 544 33,000  Level FlightAware ADS-B
Sat 01:00:47 AM 33.2681 -92.9812 76° East 472 543 33,000  Level FlightAware ADS-B
Sat 01:01:27 AM 33.2901 -92.8775 76° East 473 544 33,000  Level FlightAware ADS-B
Sat 01:04:27 AM 33.3844 -92.4259 76° East 473 544 33,000  Level FlightAware ADS-B
Sat 01:05:46 AM 33.4262 -92.2228 76° East 477 549 33,000  Level FlightAware ADS-B
Sat 01:06:16 AM 33.4411 -92.1500 76° East 472 543 33,000  Level Memphis Center
Sat 01:07:17 AM 33.4742 -91.9967 75° East 474 545 33,000  Level Memphis Center
Sat 01:08:18 AM 33.5047 -91.8428 77° East 475 547 33,000  Level Memphis Center
Sat 01:09:18 AM 33.5333 -91.7056 76° East 475 547 33,000  Level Memphis Center
Sat 01:10:19 AM 33.5608 -91.5542 78° East 474 545 33,000  Level Memphis Center
Sat 01:11:19 AM 33.5906 -91.3992 77° East 474 545 33,000  Level Memphis Center
Sat 01:12:20 AM 33.6219 -91.2453 76° East 474 545 33,000  Level Memphis Center
Sat 01:13:20 AM 33.6517 -91.0881 77° East 478 550 33,000  Level Memphis Center
Sat 01:14:21 AM 33.6900 -90.8994 76° East 482 555 33,000  Level Memphis Center
Sat 01:15:21 AM 33.7197 -90.7431 77° East 482 555 33,000  Level Memphis Center
Sat 01:16:22 AM 33.7497 -90.5869 77° East 482 555 33,000  Level Memphis Center
Sat 01:17:22 AM 33.7792 -90.4308 77° East 482 555 33,000  Level Memphis Center
Sat 01:18:23 AM 33.8089 -90.2731 77° East 482 555 33,000  Level Memphis Center
Sat 01:19:23 AM 33.8364 -90.1183 78° East 482 555 33,000  Level Memphis Center
Sat 01:20:24 AM 33.8661 -89.9631 77° East 482 555 33,000  Level Memphis Center
Sat 01:21:24 AM 33.8944 -89.8067 78° East 482 555 33,000  Level Memphis Center
Sat 01:22:24 AM 33.9231 -89.6494 78° East 482 555 33,000  Level Memphis Center
Sat 01:23:25 AM 33.9511 -89.4933 78° East 482 555 33,000  Level Memphis Center
Sat 01:24:25 AM 33.9792 -89.3381 78° East 481 554 33,000  Level Memphis Center
Sat 01:25:26 AM 34.0072 -89.1819 78° East 481 554 33,000  Level Memphis Center
Sat 01:26:26 AM 34.0350 -89.0247 78° East 481 554 33,000 -347 Level Memphis Center
Sat 01:27:27 AM 34.0628 -88.8678 78° East 481 554 32,300 -893 Descending Memphis Center
Sat 01:28:27 AM 34.0964 -88.7028 76° East 481 554 31,200 -1,100 Descending Memphis Center
Sat 01:29:27 AM 34.1539 -88.5539 65° Northeast 486 559 30,100 -2,132 Descending Memphis Center
Sat 01:30:28 AM 34.2067 -88.4028 67° East 487 560 26,900 -3,421 Descending Memphis Center
Sat 01:31:28 AM 34.2608 -88.2500 67° East 492 566 23,200 -3,273 Descending Memphis Center
Sat 01:32:29 AM 34.3131 -88.1008 67° East 490 564 20,300 -2,026 Descending Memphis Center
Sat 01:37:59 AM 34.5573 -87.3996 68° East 308 354 10,000 -1,850 Descending FlightAware ADS-B (KMDQ)
Sat 01:38:16 AM 34.5685 -87.3668 67° East 302 348 9,600 -1,479 Descending FlightAware ADS-B (KMDQ)
Sat 01:39:12 AM 34.5986 -87.2793 68° East 306 352 8,200 -1,472 Descending FlightAware ADS-B (KMDQ)
Sat 01:40:02 AM 34.6250 -87.2018 68° East 303 349 7,000 -1,341 Descending FlightAware ADS-B (KMDQ)
Sat 01:40:37 AM 34.6441 -87.1460 68° East 296 341 6,300 -978 Descending FlightAware ADS-B (KMDQ)
Sat 01:41:34 AM 34.6797 -87.0651 58° Northeast 290 334 5,500 -786 Descending FlightAware ADS-B (KMDQ)
Sat 01:42:01 AM 34.6994 -87.0271 58° Northeast 291 335 5,200 -1,278 Descending FlightAware ADS-B (KMDQ)
Sat 01:43:22 AM 34.7556 -86.9191 58° Northeast 288 331 3,200 -1,366 Descending FlightAware ADS-B (KMDQ)
Sat 01:43:42 AM 34.7715 -86.8887 58° Northeast 277 319 2,900 -450 Descending FlightAware ADS-B (KMDQ)
Sat 01:44:02 AM 34.7845 -86.8632 58° Northeast 255 293 2,900  Level FlightAware ADS-B (KMDQ)
Sat 01:44:20 AM 34.7957 -86.8419 58° Northeast 244 281 2,900  Level FlightAware ADS-B (KMDQ)
Sat 01:44:41 AM 34.8068 -86.8172 74° East 232 267 2,900  Level FlightAware ADS-B (KMDQ)
Sat 01:45:02 AM 34.8038 -86.7940 125° Southeast 225 259 2,900  Level FlightAware ADS-B (KMDQ)
Sat 01:45:21 AM 34.7882 -86.7827 168° South 201 231 2,900 -308 Level FlightAware ADS-B (KMDQ)
Sat 01:45:41 AM 34.7674 -86.7802 179° South 193 222 2,700 -750 Descending FlightAware ADS-B (KMDQ)
Sat 01:46:01 AM 34.7523 -86.7802 181° South 168 193 2,400 -878 Descending FlightAware ADS-B (KMDQ)
Sat 01:46:22 AM 34.7363 -86.7804 182° South 158 182 2,100 -735 Descending FlightAware ADS-B (KMDQ)
Sat 01:46:50 AM 34.7158 -86.7808 181° South 148 170 1,800 -643 Descending FlightAware ADS-B (KMDQ)

Login

Don't have an account? Register now (free) for customized features, flight alerts, and more!